Time;durP1;ratioP1;P1;durP2;ratioP2;P2;SDS_P1;SDS_P2;PMS_P1;PMS_P2;Temp;Humidity;BMP_temperature;BMP_pressure;BME280_temperature;BME280_humidity;BME280_pressure;Samples;Min_cycle;Max_cycle;Signal;HPM_P1;HPM_P2
2024/04/03 00:02:22;;;;;;;;;;;;;;;20.46;35.79;95300.88;10453176;28;2856;-62
2024/04/03 00:07:22;;;;;;;;;;;;;;;20.45;35.57;95295.88;10473990;28;2804;-62
2024/04/03 00:12:23;;;;;;;;;;;;;;;20.43;35.89;95296.16;10471889;28;2872;-62
2024/04/03 00:17:23;;;;;;;;;;;;;;;20.42;36.32;95291.19;10467964;28;2703;-61
2024/04/03 00:22:23;;;;;;;;;;;;;;;20.42;35.42;95286.72;10473137;28;2770;-60
2024/04/03 00:27:24;;;;;;;;;;;;;;;20.40;35.90;95280.94;10455409;28;2795;-60
2024/04/03 00:32:24;;;;;;;;;;;;;;;20.40;35.60;95272.28;10464267;28;2834;-61
2024/04/03 00:37:24;;;;;;;;;;;;;;;20.38;35.71;95272.53;10468003;28;2723;-61
2024/04/03 00:42:24;;;;;;;;;;;;;;;20.37;35.67;95268.34;10454015;28;2788;-61
2024/04/03 00:47:25;;;;;;;;;;;;;;;20.36;35.70;95263.38;10468228;28;2890;-61
2024/04/03 00:52:25;;;;;;;;;;;;;;;20.35;35.26;95259.94;10448284;28;2950;-61
2024/04/03 00:57:25;;;;;;;;;;;;;;;20.34;35.41;95247.84;10468581;28;2816;-61
2024/04/03 01:02:26;;;;;;;;;;;;;;;20.33;35.66;95243.66;10453566;28;2790;-61
2024/04/03 01:07:26;;;;;;;;;;;;;;;20.32;35.69;95234.19;10465202;28;2715;-61
2024/04/03 01:12:31;;;;;;;;;;;;;;;20.30;35.53;95228.41;10472101;28;2801;-60
2024/04/03 01:17:32;;;;;;;;;;;;;;;20.30;35.75;95223.16;10450838;28;2763;-61
2024/04/03 01:22:32;;;;;;;;;;;;;;;20.26;35.81;95212.41;10448188;28;2873;-61
2024/04/03 01:27:33;;;;;;;;;;;;;;;20.27;35.59;95207.94;10478646;28;2939;-61
2024/04/03 01:32:33;;;;;;;;;;;;;;;20.25;35.58;95205.59;10462234;28;2931;-61
2024/04/03 01:37:34;;;;;;;;;;;;;;;20.25;36.17;95195.06;10466688;28;2882;-59
2024/04/03 01:42:34;;;;;;;;;;;;;;;20.24;36.16;95187.44;10470425;28;2727;-61
2024/04/03 01:47:34;;;;;;;;;;;;;;;20.22;36.33;95185.09;10457482;28;2912;-60
2024/04/03 01:52:35;;;;;;;;;;;;;;;20.22;36.26;95176.41;10466973;28;2717;-61
2024/04/03 01:57:35;;;;;;;;;;;;;;;20.21;36.41;95177.50;10451620;28;2795;-60
2024/04/03 02:02:35;;;;;;;;;;;;;;;20.20;36.12;95175.94;10458824;28;2821;-60
2024/04/03 02:07:36;;;;;;;;;;;;;;;20.19;36.09;95174.34;10460651;28;2288;-61
2024/04/03 02:12:36;;;;;;;;;;;;;;;20.18;36.45;95154.34;10448117;28;2785;-60
2024/04/03 02:17:36;;;;;;;;;;;;;;;20.17;36.60;95150.16;10458178;28;2864;-61
2024/04/03 02:22:37;;;;;;;;;;;;;;;20.16;36.63;95138.06;10458384;28;2559;-61
2024/04/03 02:27:37;;;;;;;;;;;;;;;20.15;36.47;95132.00;10458423;28;2826;-61
2024/04/03 02:32:37;;;;;;;;;;;;;;;20.14;36.17;95140.19;10475460;28;2652;-61
2024/04/03 02:37:38;;;;;;;;;;;;;;;20.13;36.28;95128.13;10445411;28;2548;-61
2024/04/03 02:42:38;;;;;;;;;;;;;;;20.12;36.25;95131.81;10475516;28;2604;-61
2024/04/03 02:47:38;;;;;;;;;;;;;;;20.12;36.25;95134.44;10468893;28;2812;-61
2024/04/03 02:52:38;;;;;;;;;;;;;;;20.09;36.45;95135.03;10472016;28;2840;-61
2024/04/03 02:57:39;;;;;;;;;;;;;;;20.08;36.67;95126.34;10473152;28;2868;-60
2024/04/03 03:02:39;;;;;;;;;;;;;;;20.08;36.07;95112.41;10471284;28;2875;-61
2024/04/03 03:07:40;;;;;;;;;;;;;;;20.06;36.46;95110.06;10472369;28;2713;-61
2024/04/03 03:12:40;;;;;;;;;;;;;;;20.05;36.94;95103.22;10469164;28;2798;-61
2024/04/03 03:17:40;;;;;;;;;;;;;;;20.04;36.94;95092.97;10471236;28;2932;-61
2024/04/03 03:22:41;;;;;;;;;;;;;;;20.04;36.92;95095.63;10472490;28;2702;-61
2024/04/03 03:27:41;;;;;;;;;;;;;;;20.03;37.22;95091.44;10455014;28;2631;-61
2024/04/03 03:32:42;;;;;;;;;;;;;;;20.01;37.29;95073.28;10470325;28;2567;-61
2024/04/03 03:37:45;;;;;;;;;;;;;;;20.00;37.20;95063.06;10471759;28;2799;-60
2024/04/03 03:42:45;;;;;;;;;;;;;;;19.99;37.39;95059.63;10473728;28;2840;-61
2024/04/03 03:47:45;;;;;;;;;;;;;;;20.00;37.40;95060.44;10458997;28;2813;-58
2024/04/03 03:52:45;;;;;;;;;;;;;;;19.98;37.33;95047.56;10457355;28;2662;-61
2024/04/03 03:57:46;;;;;;;;;;;;;;;19.98;37.53;95052.03;10468916;28;2640;-61
2024/04/03 04:02:46;;;;;;;;;;;;;;;19.97;36.99;95039.97;10468665;28;2733;-61
2024/04/03 04:07:47;;;;;;;;;;;;;;;19.97;36.06;95037.34;10475577;28;2596;-62
2024/04/03 04:12:47;;;;;;;;;;;;;;;19.99;37.13;95040.47;10467235;28;2928;-61
2024/04/03 04:17:49;;;;;;;;;;;;;;;20.02;37.55;95026.72;10470792;28;2782;-62
2024/04/03 04:22:50;;;;;;;;;;;;;;;20.04;37.63;95024.59;10474750;28;2583;-61
2024/04/03 04:27:50;;;;;;;;;;;;;;;20.08;37.40;95036.09;10469849;28;2556;-61
2024/04/03 04:32:50;;;;;;;;;;;;;;;20.17;37.76;95039.66;10466486;28;2777;-61
2024/04/03 04:37:50;;;;;;;;;;;;;;;20.22;36.51;95031.69;10451098;28;2774;-61
2024/04/03 04:42:51;;;;;;;;;;;;;;;20.27;36.50;95036.88;10468537;28;2844;-60
2024/04/03 04:47:51;;;;;;;;;;;;;;;20.31;36.24;95027.34;10470549;28;2749;-59
2024/04/03 04:52:51;;;;;;;;;;;;;;;20.34;36.07;95039.16;10471133;28;2963;-59
2024/04/03 04:57:52;;;;;;;;;;;;;;;20.37;36.39;95041.97;10451582;28;2833;-62
2024/04/03 05:02:52;;;;;;;;;;;;;;;20.38;36.56;95035.63;10466025;28;2571;-61
2024/04/03 05:07:52;;;;;;;;;;;;;;;20.44;36.08;95033.72;10452265;28;2815;-61
2024/04/03 05:12:52;;;;;;;;;;;;;;;20.46;36.43;95034.19;10467415;28;2743;-61
2024/04/03 05:17:53;;;;;;;;;;;;;;;20.48;36.37;95034.69;10452154;28;2909;-61
2024/04/03 05:22:53;;;;;;;;;;;;;;;20.47;36.57;95028.63;10432788;28;2730;-61
2024/04/03 05:27:53;;;;;;;;;;;;;;;20.51;36.57;95023.56;10465926;28;2715;-61
2024/04/03 05:32:54;;;;;;;;;;;;;;;20.52;36.84;95020.66;10470593;28;2818;-61
2024/04/03 05:37:54;;;;;;;;;;;;;;;20.53;37.07;95026.69;10453169;28;2714;-61
2024/04/03 05:42:55;;;;;;;;;;;;;;;20.54;36.54;95023.78;10474132;28;2823;-61
2024/04/03 05:47:55;;;;;;;;;;;;;;;20.58;36.30;95023.97;10482163;28;2857;-61
2024/04/03 05:52:56;;;;;;;;;;;;;;;20.60;36.77;95027.88;10462881;28;2867;-61
2024/04/03 05:57:56;;;;;;;;;;;;;;;20.60;36.67;95024.47;10488971;28;2594;-63
2024/04/03 06:02:57;;;;;;;;;;;;;;;20.62;36.47;95015.22;10487195;28;2721;-61
2024/04/03 06:07:59;;;;;;;;;;;;;;;20.63;36.42;95008.84;10475720;28;2826;-61
2024/04/03 06:12:59;;;;;;;;;;;;;;;20.64;36.30;95013.06;10454436;28;2891;-61
2024/04/03 06:18:00;;;;;;;;;;;;;;;20.66;36.67;95015.41;10443499;28;2656;-61
2024/04/03 06:23:00;;;;;;;;;;;;;;;20.69;35.98;95009.56;10443111;28;2588;-62
2024/04/03 06:28:00;;;;;;;;;;;;;;;20.69;36.58;95012.19;10456641;28;3302;-61
2024/04/03 06:33:00;;;;;;;;;;;;;;;20.66;36.26;95005.66;10471255;28;2608;-60
2024/04/03 06:38:01;;;;;;;;;;;;;;;20.69;36.38;95015.59;10455431;28;2815;-61
2024/04/03 06:43:03;;;;;;;;;;;;;;;20.71;35.75;95008.19;10454952;28;2858;-63
2024/04/03 06:48:04;;;;;;;;;;;;;;;20.71;36.22;95005.53;10468496;28;2842;-62
2024/04/03 06:53:04;;;;;;;;;;;;;;;20.71;36.52;95000.28;10453839;28;2872;-62
2024/04/03 06:58:05;;;;;;;;;;;;;;;20.76;36.25;95009.94;10471562;28;2832;-61
2024/04/03 07:03:05;;;;;;;;;;;;;;;20.76;36.26;95004.69;10437425;28;2717;-62
2024/04/03 07:08:06;;;;;;;;;;;;;;;20.77;36.09;94993.84;10455441;28;2861;-61
2024/04/03 07:13:06;;;;;;;;;;;;;;;20.78;36.94;94994.63;10468886;28;2526;-61
2024/04/03 07:18:06;;;;;;;;;;;;;;;20.83;36.11;94997.97;10459818;28;2755;-62
2024/04/03 07:23:07;;;;;;;;;;;;;;;20.83;36.24;95000.59;10471929;28;2822;-62
2024/04/03 07:28:13;;;;;;;;;;;;;;;20.81;36.48;95004.59;10453720;28;2806;-62
2024/04/03 07:33:13;;;;;;;;;;;;;;;20.84;36.08;95004.78;10467354;28;2782;-62
2024/04/03 07:38:19;;;;;;;;;;;;;;;20.85;36.37;95009.00;10449970;28;2773;-62
2024/04/03 07:43:19;;;;;;;;;;;;;;;20.89;36.15;95012.59;10432699;28;2766;-62
2024/04/03 07:48:19;;;;;;;;;;;;;;;20.88;36.39;95012.88;10448480;28;2793;-62
2024/04/03 07:53:20;;;;;;;;;;;;;;;20.88;36.30;95012.88;10452497;28;2845;-62
2024/04/03 07:58:20;;;;;;;;;;;;;;;20.90;36.62;95011.50;10451302;28;2781;-63
2024/04/03 08:03:20;;;;;;;;;;;;;;;20.90;36.26;95008.09;10466101;28;2745;-63
2024/04/03 08:08:22;;;;;;;;;;;;;;;20.92;36.55;95019.91;10445570;28;2786;-62
2024/04/03 08:13:22;;;;;;;;;;;;;;;20.92;36.36;95035.72;10461244;28;2864;-62
2024/04/03 08:18:22;;;;;;;;;;;;;;;20.92;36.33;95038.34;10453461;28;2850;-62
2024/04/03 08:23:22;;;;;;;;;;;;;;;20.94;36.12;95041.47;10460932;28;2719;-62
2024/04/03 08:28:23;;;;;;;;;;;;;;;20.95;35.89;95040.41;10450759;28;2801;-61
2024/04/03 08:33:23;;;;;;;;;;;;;;;21.00;35.38;95039.50;10467130;28;2794;-61
2024/04/03 08:38:23;;;;;;;;;;;;;;;20.97;36.01;95037.47;10445947;28;2810;-62
2024/04/03 08:43:24;;;;;;;;;;;;;;;20.98;36.31;95039.81;10462248;28;2878;-62
2024/04/03 08:48:25;;;;;;;;;;;;;;;20.98;36.62;95036.38;10464600;28;2733;-62
2024/04/03 08:53:25;;;;;;;;;;;;;;;21.00;36.43;95039.50;10466785;28;2832;-62
2024/04/03 08:58:26;;;;;;;;;;;;;;;20.99;36.53;95044.03;10464097;28;2841;-62
2024/04/03 09:03:26;;;;;;;;;;;;;;;21.00;35.75;95045.56;10437272;28;2786;-62
2024/04/03 09:08:26;;;;;;;;;;;;;;;21.01;35.92;95044.50;10447481;28;2897;-61
2024/04/03 09:13:27;;;;;;;;;;;;;;;21.06;35.86;95049.69;10450550;28;2676;-61
2024/04/03 09:18:28;;;;;;;;;;;;;;;21.04;35.83;95059.75;10464345;28;2685;-61
2024/04/03 09:23:32;;;;;;;;;;;;;;;21.11;35.20;95059.34;10463508;28;2719;-61
2024/04/03 09:28:32;;;;;;;;;;;;;;;21.09;35.72;95056.25;10451314;28;2860;-62
2024/04/03 09:33:34;;;;;;;;;;;;;;;21.10;36.19;95059.66;10462313;28;2906;-62
2024/04/03 09:38:35;;;;;;;;;;;;;;;21.08;36.41;95056.53;10452724;28;2897;-61
2024/04/03 09:43:35;;;;;;;;;;;;;;;21.10;35.79;95067.56;10448116;28;2832;-62
2024/04/03 09:48:35;;;;;;;;;;;;;;;21.10;35.96;95078.91;10456361;28;2812;-62
2024/04/03 09:53:35;;;;;;;;;;;;;;;21.12;35.90;95060.16;10463874;28;2812;-62
2024/04/03 09:58:36;;;;;;;;;;;;;;;21.15;35.74;95059.53;10448453;28;2731;-61
2024/04/03 10:03:36;;;;;;;;;;;;;;;21.16;36.03;95056.63;10444997;28;2742;-61
2024/04/03 10:08:37;;;;;;;;;;;;;;;21.15;36.52;95059.53;10448750;28;2737;-62
2024/04/03 10:13:41;;;;;;;;;;;;;;;21.17;36.08;95062.66;10462773;28;2715;-62
2024/04/03 10:18:43;;;;;;;;;;;;;;;21.18;35.99;95056.34;10460835;28;2784;-62
2024/04/03 10:23:43;;;;;;;;;;;;;;;21.22;36.41;95066.00;10459252;28;2814;-62
2024/04/03 10:28:45;;;;;;;;;;;;;;;21.19;36.73;95065.78;10467092;28;2993;-62
2024/04/03 10:33:48;;;;;;;;;;;;;;;21.24;35.91;95063.06;10456553;28;2783;-62
2024/04/03 10:38:48;;;;;;;;;;;;;;;21.23;36.46;95050.94;10469300;28;2772;-62
2024/04/03 10:43:49;;;;;;;;;;;;;;;21.28;35.80;95048.22;10452079;28;2836;-62
2024/04/03 10:48:52;;;;;;;;;;;;;;;21.30;36.09;95040.81;10486365;28;2722;-62
2024/04/03 10:53:52;;;;;;;;;;;;;;;21.28;36.62;95037.69;10479539;28;2856;-62
2024/04/03 10:58:53;;;;;;;;;;;;;;;21.33;35.45;95034.97;10482926;28;2747;-62
2024/04/03 11:03:53;;;;;;;;;;;;;;;21.34;36.15;95041.78;10452022;28;2716;-62
2024/04/03 11:08:53;;;;;;;;;;;;;;;21.36;35.65;95032.50;10451702;28;2792;-62
2024/04/03 11:13:54;;;;;;;;;;;;;;;21.36;36.07;95035.13;10453999;28;2625;-62
2024/04/03 11:18:55;;;;;;;;;;;;;;;21.39;35.87;95029.25;10468877;28;2873;-62
2024/04/03 11:23:55;;;;;;;;;;;;;;;21.41;35.52;95034.25;10456006;28;2840;-62
2024/04/03 11:28:56;;;;;;;;;;;;;;;21.41;35.32;95024.47;10447433;28;2829;-62
2024/04/03 11:33:56;;;;;;;;;;;;;;;21.42;36.32;95027.91;10464503;28;2619;-62
2024/04/03 11:38:56;;;;;;;;;;;;;;;21.37;36.84;95028.00;10469621;28;2833;-62
2024/04/03 11:43:57;;;;;;;;;;;;;;;21.37;36.22;95020.09;10450327;28;2893;-62
2024/04/03 11:48:59;;;;;;;;;;;;;;;21.32;36.83;95020.19;10457890;28;2898;-62
2024/04/03 11:53:59;;;;;;;;;;;;;;;21.31;37.27;95013.38;10448154;28;2829;-62
2024/04/03 11:59:00;;;;;;;;;;;;;;;21.30;36.96;95017.88;10466047;28;2846;-63
2024/04/03 12:04:00;;;;;;;;;;;;;;;21.29;38.34;95016.28;10437137;28;2732;-62
2024/04/03 12:09:00;;;;;;;;;;;;;;;21.29;37.09;95028.72;10448920;28;2914;-62
2024/04/03 12:14:02;;;;;;;;;;;;;;;21.24;37.67;95032.22;10447688;28;2829;-62
2024/04/03 12:24:22;;;;;;;;;;;;;;;21.22;37.35;95030.97;10468406;28;2918;-62
2024/04/03 12:29:22;;;;;;;;;;;;;;;21.20;38.00;95025.19;10449757;28;2726;-62
2024/04/03 12:34:22;;;;;;;;;;;;;;;21.21;37.04;95021.47;10462829;28;2790;-62
2024/04/03 12:39:23;;;;;;;;;;;;;;;21.20;36.98;95030.47;10465730;28;2855;-62
2024/04/03 12:44:23;;;;;;;;;;;;;;;21.14;36.75;95037.72;10468322;28;2680;-62
2024/04/03 12:49:24;;;;;;;;;;;;;;;21.12;37.08;95039.06;10447245;28;2933;-62
2024/04/03 12:54:26;;;;;;;;;;;;;;;21.10;37.03;95039.38;10463509;28;2773;-64
2024/04/03 12:59:27;;;;;;;;;;;;;;;21.10;37.24;95020.91;10461617;28;2862;-64
2024/04/03 13:04:27;;;;;;;;;;;;;;;21.10;37.21;95036.72;10462989;28;2873;-62
2024/04/03 13:09:27;;;;;;;;;;;;;;;21.08;36.69;95044.91;10464656;28;2830;-63
2024/04/03 13:14:28;;;;;;;;;;;;;;;21.06;36.94;95044.41;10464254;28;2776;-63
2024/04/03 13:19:28;;;;;;;;;;;;;;;21.08;36.92;95044.91;10452414;28;2588;-63
2024/04/03 13:24:28;;;;;;;;;;;;;;;21.06;37.33;95052.31;10448641;28;2752;-63
2024/04/03 13:29:29;;;;;;;;;;;;;;;21.04;36.83;95043.19;10461046;28;2749;-64
2024/04/03 13:34:29;;;;;;;;;;;;;;;21.02;36.87;95048.72;10450253;28;2791;-63
2024/04/03 13:39:30;;;;;;;;;;;;;;;20.99;37.23;95059.81;10450086;28;2977;-63
2024/04/03 13:44:30;;;;;;;;;;;;;;;20.97;36.81;95056.69;10469186;28;2804;-63
2024/04/03 13:49:30;;;;;;;;;;;;;;;20.96;37.03;95064.88;10448149;28;3017;-63
2024/04/03 13:54:30;;;;;;;;;;;;;;;20.96;37.32;95073.56;10466510;28;2932;-63
2024/04/03 13:59:31;;;;;;;;;;;;;;;20.97;37.51;95066.47;10461948;28;2983;-63
2024/04/03 14:04:31;;;;;;;;;;;;;;;20.99;36.92;95075.63;10471418;28;2899;-63
2024/04/03 14:09:32;;;;;;;;;;;;;;;21.02;36.89;95077.69;10452889;28;2877;-67
2024/04/03 14:14:32;;;;;;;;;;;;;;;21.07;35.94;95092.63;10464614;28;2795;-63
2024/04/03 14:19:32;;;;;;;;;;;;;;;21.10;35.78;95101.81;10456346;28;2723;-64
2024/04/03 14:24:33;;;;;;;;;;;;;;;21.13;35.95;95109.91;10454127;28;3158;-63
2024/04/03 14:29:33;;;;;;;;;;;;;;;21.18;35.52;95109.06;10456165;28;2737;-63
2024/04/03 14:34:33;;;;;;;;;;;;;;;21.20;35.46;95122.72;10456194;28;3000;-63
2024/04/03 14:39:34;;;;;;;;;;;;;;;21.21;36.14;95119.00;10455348;28;2636;-64
2024/04/03 14:44:34;;;;;;;;;;;;;;;21.25;35.47;95141.84;10451391;28;2759;-64
2024/04/03 14:49:34;;;;;;;;;;;;;;;21.24;36.00;95142.16;10466825;28;2836;-63
2024/04/03 14:54:34;;;;;;;;;;;;;;;21.27;35.13;95146.84;10453013;28;2545;-64
2024/04/03 14:59:35;;;;;;;;;;;;;;;21.29;35.41;95147.34;10448566;28;2785;-64
2024/04/03 15:04:35;;;;;;;;;;;;;;;21.30;35.45;95147.03;10450197;28;2609;-64
2024/04/03 15:09:36;;;;;;;;;;;;;;;21.32;35.41;95154.66;10467058;28;2777;-64
2024/04/03 15:14:36;;;;;;;;;;;;;;;21.34;35.50;95137.47;10450063;28;2863;-62
2024/04/03 15:19:36;;;;;;;;;;;;;;;21.44;34.95;95131.22;10450235;28;2860;-64
2024/04/03 15:24:36;;;;;;;;;;;;;;;21.35;36.00;95127.72;10464594;28;2599;-64
2024/04/03 15:29:37;;;;;;;;;;;;;;;21.38;35.93;95127.13;10446091;28;2785;-64
2024/04/03 15:34:37;;;;;;;;;;;;;;;21.42;36.33;95123.59;10429075;28;2822;-64
2024/04/03 15:39:38;;;;;;;;;;;;;;;21.43;35.81;95122.50;10456916;28;2826;-65
2024/04/03 15:44:39;;;;;;;;;;;;;;;21.52;36.40;95125.25;10461805;28;2719;-65
2024/04/03 15:49:40;;;;;;;;;;;;;;;21.47;36.45;95130.63;10446801;28;2763;-64
2024/04/03 15:54:40;;;;;;;;;;;;;;;21.45;36.41;95143.34;10450821;28;2734;-65
2024/04/03 15:59:40;;;;;;;;;;;;;;;21.38;38.08;95138.44;10446636;28;2703;-65
2024/04/03 16:04:41;;;;;;;;;;;;;;;21.38;36.90;95143.72;10448964;28;2809;-64
2024/04/03 16:09:41;;;;;;;;;;;;;;;21.30;38.00;95140.97;10443386;28;2790;-65
2024/04/03 16:14:42;;;;;;;;;;;;;;;21.31;37.73;95147.81;10460177;28;2766;-65
2024/04/03 16:19:45;;;;;;;;;;;;;;;21.35;36.88;95148.81;10446226;28;2599;-65
2024/04/03 16:24:45;;;;;;;;;;;;;;;21.31;38.34;95163.66;10444041;28;2856;-64
2024/04/03 16:29:46;;;;;;;;;;;;;;;21.30;37.17;95167.34;10429524;28;2798;-66
2024/04/03 16:34:48;;;;;;;;;;;;;;;21.29;37.56;95173.69;10432766;28;2806;-64
2024/04/03 16:39:48;;;;;;;;;;;;;;;21.27;37.36;95173.97;10443515;28;2715;-65
2024/04/03 16:44:49;;;;;;;;;;;;;;;21.32;37.22;95175.72;10445281;28;2859;-66
2024/04/03 16:49:52;;;;;;;;;;;;;;;21.34;37.00;95177.00;10465439;28;2758;-66
2024/04/03 16:54:53;;;;;;;;;;;;;;;21.31;37.45;95168.91;10459169;28;2822;-65
2024/04/03 16:59:55;;;;;;;;;;;;;;;21.29;38.00;95171.81;10445737;28;2984;-67
2024/04/03 17:04:55;;;;;;;;;;;;;;;21.29;37.58;95179.72;10444336;28;2760;-66
2024/04/03 17:09:55;;;;;;;;;;;;;;;21.28;37.45;95180.81;10445831;28;2769;-65
2024/04/03 17:14:55;;;;;;;;;;;;;;;21.31;37.56;95190.00;10462353;28;2847;-67
2024/04/03 17:19:56;;;;;;;;;;;;;;;21.36;37.76;95195.97;10449221;28;2758;-67
2024/04/03 17:24:56;;;;;;;;;;;;;;;21.41;37.28;95198.47;10444641;28;2778;-66
2024/04/03 17:29:56;;;;;;;;;;;;;;;21.41;37.40;95197.72;10444266;28;2955;-66
2024/04/03 17:34:58;;;;;;;;;;;;;;;21.52;37.23;95209.63;10445936;28;2698;-66
2024/04/03 17:39:58;;;;;;;;;;;;;;;21.54;37.28;95216.19;10459392;28;2580;-67
2024/04/03 17:45:00;;;;;;;;;;;;;;;21.56;37.03;95221.94;10456057;28;2734;-68
2024/04/03 17:50:00;;;;;;;;;;;;;;;21.58;37.22;95226.94;10456195;28;2793;-68
2024/04/03 17:55:01;;;;;;;;;;;;;;;21.62;36.40;95222.63;10469214;28;2840;-65
2024/04/03 18:00:04;;;;;;;;;;;;;;;21.64;36.49;95226.53;10442105;28;2897;-65
2024/04/03 18:05:05;;;;;;;;;;;;;;;21.63;37.01;95219.72;10467347;28;2734;-65
2024/04/03 18:10:06;;;;;;;;;;;;;;;21.64;36.62;95228.41;10456662;28;2807;-64
2024/04/03 18:15:07;;;;;;;;;;;;;;;21.68;36.95;95242.56;10487833;28;2849;-65
2024/04/03 18:20:08;;;;;;;;;;;;;;;21.63;37.63;95253.22;10482959;28;2723;-65
2024/04/03 18:25:08;;;;;;;;;;;;;;;21.66;37.16;95265.81;10446157;28;2807;-65
2024/04/03 18:30:09;;;;;;;;;;;;;;;21.66;37.02;95263.16;10453362;28;2894;-65
2024/04/03 18:35:09;;;;;;;;;;;;;;;21.65;37.09;95274.81;10472896;28;2876;-66
2024/04/03 18:40:09;;;;;;;;;;;;;;;21.70;37.03;95282.66;10454951;28;2735;-65
2024/04/03 18:45:10;;;;;;;;;;;;;;;21.70;36.54;95280.78;10457884;28;2802;-65
2024/04/03 18:50:11;;;;;;;;;;;;;;;21.69;36.47;95286.34;10435502;28;2583;-69
2024/04/03 18:55:12;;;;;;;;;;;;;;;21.70;37.22;95283.41;10449598;28;2805;-65
2024/04/03 19:00:13;;;;;;;;;;;;;;;21.71;36.36;95289.47;10436501;28;2780;-65
2024/04/03 19:05:14;;;;;;;;;;;;;;;21.71;37.18;95300.03;10456129;28;2952;-66
2024/04/03 19:10:14;;;;;;;;;;;;;;;21.69;36.38;95305.59;10447442;28;2785;-65
2024/04/03 19:15:15;;;;;;;;;;;;;;;21.69;36.94;95304.81;10449163;28;2871;-66
2024/04/03 19:20:15;;;;;;;;;;;;;;;21.68;36.98;95308.50;10432232;28;2787;-65
2024/04/03 19:25:15;;;;;;;;;;;;;;;21.71;36.52;95311.38;10436127;28;2797;-65
2024/04/03 19:30:16;;;;;;;;;;;;;;;21.71;36.44;95308.72;10466844;28;2757;-65
2024/04/03 19:35:16;;;;;;;;;;;;;;;21.74;36.38;95318.69;10450196;28;2739;-64
2024/04/03 19:40:16;;;;;;;;;;;;;;;21.70;36.46;95325.63;10457628;28;2727;-63
2024/04/03 19:45:17;;;;;;;;;;;;;;;21.67;36.35;95330.69;10446140;28;2861;-61
2024/04/03 19:50:17;;;;;;;;;;;;;;;21.63;36.76;95327.88;10445177;28;2802;-63
2024/04/03 19:55:19;;;;;;;;;;;;;;;21.63;36.58;95332.34;10452555;28;2648;-64
2024/04/03 20:00:20;;;;;;;;;;;;;;;21.62;36.26;95318.38;10452098;28;2668;-62
2024/04/03 20:05:20;;;;;;;;;;;;;;;21.55;37.92;95322.47;10465618;28;2860;-63
2024/04/03 20:10:23;;;;;;;;;;;;;;;21.51;37.37;95330.19;10450921;28;2760;-62
2024/04/03 20:15:23;;;;;;;;;;;;;;;21.43;38.06;95338.72;10463039;28;2779;-61
2024/04/03 20:20:23;;;;;;;;;;;;;;;21.41;37.65;95346.16;10451736;28;2922;-60
2024/04/03 20:25:24;;;;;;;;;;;;;;;21.37;37.47;95341.75;10446796;28;2847;-61
2024/04/03 20:30:24;;;;;;;;;;;;;;;21.34;37.90;95344.94;10448318;28;2825;-62
2024/04/03 20:35:25;;;;;;;;;;;;;;;21.28;37.85;95352.16;10444276;28;2670;-61
2024/04/03 20:40:26;;;;;;;;;;;;;;;21.24;38.00;95351.19;10460628;28;2915;-60
2024/04/03 20:45:27;;;;;;;;;;;;;;;21.20;38.04;95360.72;10458528;28;2716;-60
2024/04/03 20:50:27;;;;;;;;;;;;;;;21.16;37.56;95351.81;10458405;28;2745;-60
2024/04/03 20:55:27;;;;;;;;;;;;;;;21.14;37.23;95358.44;10470670;28;2767;-61
2024/04/03 21:00:27;;;;;;;;;;;;;;;21.12;38.04;95364.00;10443277;28;2747;-61
2024/04/03 21:05:29;;;;;;;;;;;;;;;21.08;37.98;95368.28;10474782;28;2714;-61
2024/04/03 21:10:29;;;;;;;;;;;;;;;21.06;37.70;95365.91;10457864;28;2826;-62
2024/04/03 21:15:30;;;;;;;;;;;;;;;21.03;37.44;95358.59;10458558;28;2916;-62
2024/04/03 21:20:30;;;;;;;;;;;;;;;21.03;37.65;95363.06;10444634;28;2968;-62
2024/04/03 21:25:30;;;;;;;;;;;;;;;21.03;36.77;95361.22;10446665;28;2862;-62
2024/04/03 21:30:31;;;;;;;;;;;;;;;21.00;37.25;95374.94;10442105;28;2874;-62
2024/04/03 21:35:31;;;;;;;;;;;;;;;20.98;37.43;95363.09;10447287;28;2849;-60
2024/04/03 21:40:31;;;;;;;;;;;;;;;20.96;37.35;95355.50;10460116;28;2735;-62
2024/04/03 21:45:31;;;;;;;;;;;;;;;20.94;36.92;95362.09;10463561;28;2742;-61
2024/04/03 21:50:37;;;;;;;;;;;;;;;20.94;37.02;95362.09;10450593;28;2572;-61
2024/04/03 21:55:38;;;;;;;;;;;;;;;20.91;37.06;95360.84;10448232;28;2732;-62
2024/04/03 22:00:38;;;;;;;;;;;;;;;20.90;36.59;95363.75;10430228;28;2792;-62
2024/04/03 22:05:43;;;;;;;;;;;;;;;20.89;36.50;95364.81;10448469;28;2559;-62
2024/04/03 22:10:52;;;;;;;;;;;;;;;20.87;36.70;95364.31;10461201;28;2797;-61
2024/04/03 22:15:52;;;;;;;;;;;;;;;20.85;36.18;95369.09;10446217;28;2600;-59
2024/04/03 22:20:52;;;;;;;;;;;;;;;20.84;36.25;95372.78;10462425;28;2833;-62
2024/04/03 22:25:52;;;;;;;;;;;;;;;20.81;36.60;95366.22;10454261;28;2575;-61
2024/04/03 22:30:53;;;;;;;;;;;;;;;20.80;36.60;95364.69;10451244;28;2774;-62
2024/04/03 22:35:54;;;;;;;;;;;;;;;20.80;36.43;95372.56;10453554;28;2847;-62
2024/04/03 22:40:55;;;;;;;;;;;;;;;20.78;36.46;95366.03;10469087;28;3067;-61
2024/04/03 22:45:56;;;;;;;;;;;;;;;20.75;36.60;95363.97;10470583;28;2639;-60
2024/04/03 22:50:56;;;;;;;;;;;;;;;20.73;36.61;95364.22;10469200;28;2738;-61
2024/04/03 22:55:56;;;;;;;;;;;;;;;20.73;36.23;95369.50;10476823;28;2718;-62
2024/04/03 23:00:56;;;;;;;;;;;;;;;20.71;36.11;95366.38;10470191;28;2807;-61
2024/04/03 23:05:57;;;;;;;;;;;;;;;20.67;36.81;95368.00;10468810;28;2988;-61
2024/04/03 23:10:59;;;;;;;;;;;;;;;20.66;36.54;95365.66;10453668;28;2724;-62
2024/04/03 23:16:05;;;;;;;;;;;;;;;20.64;37.32;95371.22;10452806;28;2886;-62
2024/04/03 23:21:06;;;;;;;;;;;;;;;20.63;36.85;95385.44;10467966;28;2782;-62
2024/04/03 23:26:06;;;;;;;;;;;;;;;20.62;36.30;95381.25;10447069;28;2923;-61
2024/04/03 23:31:06;;;;;;;;;;;;;;;20.62;36.28;95391.00;10457393;28;2861;-62
2024/04/03 23:36:07;;;;;;;;;;;;;;;20.58;36.94;95388.16;10448484;28;2845;-62
2024/04/03 23:41:07;;;;;;;;;;;;;;;20.57;36.65;95381.28;10454006;28;2876;-61
2024/04/03 23:46:07;;;;;;;;;;;;;;;20.57;36.29;95375.22;10452918;28;2712;-62
2024/04/03 23:51:08;;;;;;;;;;;;;;;20.55;37.67;95372.09;10449731;28;2647;-61
2024/04/03 23:56:09;;;;;;;;;;;;;;;20.53;36.33;95359.22;10452656;28;2651;-62
